Time;durP1;ratioP1;P1;durP2;ratioP2;P2;SDS_P1;SDS_P2;PMS_P1;PMS_P2;Temp;Humidity;BMP_temperature;BMP_pressure;BME280_temperature;BME280_humidity;BME280_pressure;Samples;Min_cycle;Max_cycle;Signal;HPM_P1;HPM_P2
2021/01/22 00:01:15;;;;;;;0.50;0.50;;;;;;;8.14;55.64;97993.25;7974191;28;20038;-65
2021/01/22 00:05:06;;;;;;;0.73;0.50;;;;;;;8.18;55.70;98001.59;7974864;28;20120;-65
2021/01/22 00:08:57;;;;;;;0.85;0.60;;;;;;;8.15;55.87;97994.91;7974591;28;20048;-65
2021/01/22 00:12:47;;;;;;;3.05;0.50;;;;;;;8.17;55.71;97992.94;7973397;28;20044;-66
2021/01/22 00:16:38;;;;;;;2.00;0.60;;;;;;;8.18;55.79;97985.91;7974280;28;20136;-63
2021/01/22 00:20:29;;;;;;;0.85;0.57;;;;;;;8.17;56.06;97984.31;7974787;28;20042;-65
2021/01/22 00:24:19;;;;;;;0.70;0.50;;;;;;;8.17;56.15;97982.47;7974468;28;20140;-66
2021/01/22 00:28:10;;;;;;;1.23;0.75;;;;;;;8.18;55.97;97978.91;7973255;28;20665;-63
2021/01/22 00:32:02;;;;;;;0.60;0.60;;;;;;;8.16;56.07;97959.94;7998289;28;20120;-65
2021/01/22 00:35:52;;;;;;;1.98;1.10;;;;;;;8.17;55.98;97956.34;8006666;28;20049;-64
2021/01/22 00:39:43;;;;;;;2.55;0.98;;;;;;;8.14;55.86;97954.03;8006387;28;20131;-66
2021/01/22 00:43:33;;;;;;;1.83;0.80;;;;;;;8.18;56.32;97957.16;8005568;28;20037;-66
2021/01/22 00:47:24;;;;;;;3.78;0.70;;;;;;;8.17;56.25;97960.75;8005820;28;20136;-66
2021/01/22 00:51:15;;;;;;;3.58;0.73;;;;;;;8.17;55.94;97952.94;8005541;28;20029;-63
2021/01/22 00:55:06;;;;;;;1.88;1.10;;;;;;;8.18;56.22;97947.53;8005701;28;20433;-65
2021/01/22 00:59:15;;;;;;;5.30;1.50;;;;;;;8.18;56.31;97955.34;8008405;28;20072;-65
2021/01/22 01:03:09;;;;;;;3.67;0.80;;;;;;;8.17;56.43;97943.25;8009247;28;20037;-65
2021/01/22 01:07:00;;;;;;;2.40;0.88;;;;;;;8.12;56.04;97936.88;8010577;28;20033;-65
2021/01/22 01:10:51;;;;;;;1.83;0.70;;;;;;;8.17;56.06;97932.00;8010061;28;20029;-65
2021/01/22 01:15:05;;;;;;;1.80;0.60;;;;;;;8.18;56.20;97929.22;8010690;28;20049;-65
2021/01/22 01:19:03;;;;;;;1.30;0.63;;;;;;;8.15;56.11;97921.69;8008742;28;21679;-66
2021/01/22 01:22:54;;;;;;;1.58;0.85;;;;;;;8.18;56.14;97928.38;8025989;28;20136;-65
2021/01/22 01:26:44;;;;;;;2.55;0.73;;;;;;;8.17;56.21;97940.63;8010944;28;20070;-65
2021/01/22 01:30:35;;;;;;;2.00;0.60;;;;;;;8.17;56.62;97953.72;8001842;28;20129;-65
2021/01/22 01:34:26;;;;;;;1.30;0.60;;;;;;;8.16;56.34;98076.78;7978743;28;20596;-65
2021/01/22 01:38:18;;;;;;;0.43;0.40;;;;;;;8.07;55.92;98088.94;7978848;28;20116;-63
2021/01/22 01:42:09;;;;;;;1.45;0.60;;;;;;;7.93;56.13;98099.94;7978523;28;20120;-65
2021/01/22 01:46:00;;;;;;;0.50;0.50;;;;;;;7.78;56.10;98119.75;7978041;28;20037;-65
2021/01/22 01:49:50;;;;;;;0.82;0.70;;;;;;;7.57;55.92;98125.28;7978172;28;20064;-64
2021/01/22 01:53:41;;;;;;;0.40;0.40;;;;;;;7.54;56.02;98137.81;7978251;28;20067;-63
2021/01/22 01:57:32;;;;;;;0.60;0.60;;;;;;;7.46;56.07;98177.75;7978755;28;20099;-65
2021/01/22 02:01:25;;;;;;;0.60;0.60;;;;;;;7.37;55.66;98179.44;7975983;28;20073;-65
2021/01/22 02:05:16;;;;;;;0.60;0.60;;;;;;;7.25;55.58;98206.72;7978050;28;20081;-66
2021/01/22 02:09:07;;;;;;;0.70;0.70;;;;;;;7.13;55.32;98238.38;7978217;28;20045;-65
2021/01/22 02:13:00;;;;;;;0.50;0.50;;;;;;;6.96;55.26;98259.03;7977418;28;20030;-66
2021/01/22 02:16:51;;;;;;;0.60;0.60;;;;;;;6.81;55.30;98276.06;7977210;28;20038;-65
2021/01/22 02:21:01;;;;;;;0.50;0.50;;;;;;;6.62;55.10;98312.59;7977149;28;20128;-64
2021/01/22 02:24:54;;;;;;;0.50;0.50;;;;;;;6.44;54.90;98320.28;7975837;28;20068;-66
2021/01/22 02:28:45;;;;;;;0.50;0.50;;;;;;;6.32;55.01;98350.06;7976387;28;20379;-65
2021/01/22 02:32:37;;;;;;;0.50;0.50;;;;;;;6.17;55.04;98363.63;7951543;28;20438;-65
2021/01/22 02:36:32;;;;;;;0.50;0.50;;;;;;;6.09;54.61;98388.56;7984034;28;20036;-65
2021/01/22 02:40:23;;;;;;;0.50;0.50;;;;;;;6.01;54.55;98382.38;8008789;28;20025;-64
2021/01/22 02:44:16;;;;;;;0.50;0.50;;;;;;;5.95;54.54;98394.13;8007882;28;20500;-63
2021/01/22 02:48:07;;;;;;;0.60;0.60;;;;;;;5.88;54.57;98393.03;8007680;28;20040;-65
2021/01/22 02:51:58;;;;;;;0.60;0.60;;;;;;;5.79;54.89;98411.22;8007558;28;20081;-66
2021/01/22 02:55:55;;;;;;;0.70;0.70;;;;;;;5.71;54.49;98390.19;8007704;28;20123;-65
2021/01/22 02:59:54;;;;;;;0.90;0.90;;;;;;;5.69;54.46;98405.13;8008230;28;20037;-63
2021/01/22 03:03:55;;;;;;;1.33;0.80;;;;;;;5.60;54.34;98417.97;8007267;28;20670;-63
2021/01/22 03:07:50;;;;;;;0.70;0.70;;;;;;;5.61;54.39;98426.59;8008162;28;20397;-64
2021/01/22 03:11:44;;;;;;;0.80;0.80;;;;;;;5.59;54.46;98434.56;8007557;28;20033;-65
2021/01/22 03:15:35;;;;;;;0.70;0.70;;;;;;;5.65;54.60;98443.63;8006462;28;20040;-64
2021/01/22 03:19:26;;;;;;;1.05;0.90;;;;;;;5.62;54.24;98452.53;8006984;28;20032;-65
2021/01/22 03:23:17;;;;;;;1.13;1.05;;;;;;;5.58;54.15;98452.91;8006270;28;20180;-65
2021/01/22 03:27:09;;;;;;;1.65;1.48;;;;;;;5.52;54.33;98467.25;8007161;28;20029;-63
2021/01/22 03:30:59;;;;;;;1.88;1.63;;;;;;;5.52;54.38;98472.47;7994731;28;20049;-65
2021/01/22 03:34:50;;;;;;;2.72;2.00;;;;;;;5.50;54.11;98483.97;7974268;28;20167;-65
2021/01/22 03:38:41;;;;;;;2.95;2.20;;;;;;;5.45;54.23;98486.13;7975436;28;20121;-65
2021/01/22 03:42:31;;;;;;;2.08;1.88;;;;;;;5.48;54.17;98494.50;7975219;28;20610;-65
2021/01/22 03:46:22;;;;;;;2.00;1.73;;;;;;;5.49;54.11;98511.78;7974391;28;20577;-65
2021/01/22 03:50:13;;;;;;;1.92;1.65;;;;;;;5.46;54.19;98512.06;7973895;28;20116;-65
2021/01/22 03:54:04;;;;;;;1.52;1.42;;;;;;;5.47;54.24;98523.28;7974320;28;20033;-65
2021/01/22 03:57:55;;;;;;;1.70;1.50;;;;;;;5.44;53.95;98532.16;7975486;28;20397;-64
2021/01/22 04:01:46;;;;;;;1.40;1.30;;;;;;;5.35;54.29;98539.91;7974270;28;20610;-64
2021/01/22 04:05:36;;;;;;;1.30;1.20;;;;;;;5.35;54.38;98548.56;7974986;28;20048;-65
2021/01/22 04:09:28;;;;;;;1.70;1.30;;;;;;;5.34;54.35;98546.91;7974955;28;20104;-65
2021/01/22 04:13:19;;;;;;;1.38;1.27;;;;;;;5.31;54.17;98551.53;7974595;28;20034;-65
2021/01/22 04:17:09;;;;;;;2.05;1.38;;;;;;;5.27;54.46;98552.72;7972906;28;20485;-65
2021/01/22 04:21:00;;;;;;;1.02;0.93;;;;;;;5.25;54.27;98560.66;7974784;28;20179;-65
2021/01/22 04:24:51;;;;;;;1.55;1.10;;;;;;;5.22;54.41;98571.31;7973258;28;20132;-65
2021/01/22 04:28:41;;;;;;;1.00;0.90;;;;;;;5.15;54.37;98570.97;7974651;28;20112;-65
2021/01/22 04:32:32;;;;;;;1.20;1.10;;;;;;;5.15;54.45;98564.94;7950056;28;20044;-64
2021/01/22 04:36:22;;;;;;;3.95;1.20;;;;;;;5.16;54.50;98567.41;7999469;28;20669;-64
2021/01/22 04:40:13;;;;;;;2.38;1.15;;;;;;;5.16;54.46;98585.63;8011869;28;20132;-66
2021/01/22 04:44:04;;;;;;;1.65;1.30;;;;;;;5.16;54.47;98590.00;8011540;28;20036;-65
2021/01/22 04:47:55;;;;;;;1.90;1.50;;;;;;;5.13;54.53;98583.25;8011225;28;20075;-65
2021/01/22 04:51:46;;;;;;;1.23;1.13;;;;;;;5.15;54.38;98585.75;8011725;28;20037;-64
2021/01/22 04:55:43;;;;;;;1.60;1.23;;;;;;;5.14;54.52;98577.13;8011774;28;20063;-65
2021/01/22 04:59:47;;;;;;;2.00;1.70;;;;;;;5.13;54.42;98593.66;8011681;28;20041;-63
2021/01/22 05:03:39;;;;;;;2.85;1.65;;;;;;;5.10;54.50;98591.28;8010021;28;20459;-65
2021/01/22 05:07:30;;;;;;;4.07;1.80;;;;;;;5.07;54.56;98583.72;8011609;28;20037;-65
2021/01/22 05:11:21;;;;;;;2.40;1.77;;;;;;;5.07;54.64;98590.72;8011322;28;20239;-65
2021/01/22 05:15:15;;;;;;;1.60;1.50;;;;;;;5.07;54.67;98598.50;8010721;28;20934;-65
2021/01/22 05:19:23;;;;;;;2.38;1.90;;;;;;;5.05;54.51;98603.03;8011224;28;20047;-65
2021/01/22 05:23:14;;;;;;;2.70;2.00;;;;;;;5.03;54.72;98603.13;8010952;28;20782;-66
2021/01/22 05:27:13;;;;;;;2.25;1.77;;;;;;;5.03;54.34;98597.94;8011515;28;20048;-65
2021/01/22 05:31:11;;;;;;;1.92;1.73;;;;;;;5.03;54.75;98600.53;7997564;28;20541;-65
2021/01/22 05:35:02;;;;;;;;;;;;;;;4.95;54.33;98600.31;7979638;28;20033;-65
2021/01/22 05:38:54;;;;;;;2.38;1.80;;;;;;;4.96;54.54;98611.56;7978225;28;19944;-65
2021/01/22 05:42:46;;;;;;;2.08;1.88;;;;;;;4.95;54.74;98608.13;7977325;28;20032;-65
2021/01/22 05:46:37;;;;;;;3.15;2.30;;;;;;;4.95;54.35;98621.13;7978187;28;20041;-64
2021/01/22 05:50:43;;;;;;;3.05;1.92;;;;;;;4.94;54.67;98610.88;7978623;28;20128;-65
2021/01/22 05:54:38;;;;;;;2.70;2.30;;;;;;;4.92;54.54;98607.53;7978456;28;20108;-65
2021/01/22 05:58:29;;;;;;;3.13;2.03;;;;;;;4.94;54.72;98608.25;7978860;28;20095;-65
2021/01/22 06:02:33;;;;;;;4.57;2.20;;;;;;;4.94;54.71;98606.47;7977735;28;20502;-65
2021/01/22 06:06:31;;;;;;;2.47;2.10;;;;;;;4.94;54.88;98619.47;7976940;28;20094;-65
2021/01/22 06:10:22;;;;;;;2.47;1.98;;;;;;;4.93;54.77;98619.59;7977973;28;20123;-62
2021/01/22 06:14:14;;;;;;;2.25;1.67;;;;;;;4.93;54.88;98620.44;7977525;28;20033;-65
2021/01/22 06:18:06;;;;;;;3.08;1.92;;;;;;;4.94;54.73;98635.09;7979975;28;20043;-65
2021/01/22 06:22:16;;;;;;;3.13;1.90;;;;;;;4.95;54.75;98635.91;7985019;28;20065;-65
2021/01/22 06:26:06;;;;;;;2.83;2.00;;;;;;;4.94;54.66;98634.28;7989300;28;20048;-63
2021/01/22 06:29:58;;;;;;;3.20;2.35;;;;;;;4.98;54.91;98648.69;7988220;28;20032;-65
2021/01/22 06:33:48;;;;;;;3.38;2.30;;;;;;;5.01;54.89;98645.84;7976209;28;20038;-63
2021/01/22 06:37:40;;;;;;;2.50;1.95;;;;;;;5.02;54.73;98650.91;7976900;28;20120;-65
2021/01/22 06:41:31;;;;;;;3.22;2.13;;;;;;;5.04;55.05;98656.03;7975758;28;20276;-65
2021/01/22 06:45:24;;;;;;;3.25;2.20;;;;;;;5.02;55.34;98655.31;7976353;28;20057;-64
2021/01/22 06:49:30;;;;;;;2.72;2.00;;;;;;;5.07;55.04;98667.00;7976266;28;20091;-65
2021/01/22 06:53:21;;;;;;;4.60;2.10;;;;;;;5.09;54.79;98677.31;7975908;28;20453;-65
2021/01/22 06:57:11;;;;;;;4.03;2.20;;;;;;;5.09;54.92;98678.16;7975699;28;20560;-64
2021/01/22 07:01:05;;;;;;;2.53;1.80;;;;;;;5.11;55.00;98678.84;7975425;28;20354;-65
2021/01/22 07:04:55;;;;;;;3.33;1.88;;;;;;;5.13;54.89;98687.38;7975449;28;20037;-63
2021/01/22 07:08:49;;;;;;;2.08;1.75;;;;;;;5.14;55.09;98688.19;7976057;28;20120;-65
2021/01/22 07:12:41;;;;;;;5.28;2.50;;;;;;;5.10;55.11;98690.19;7976000;28;20040;-64
2021/01/22 07:16:35;;;;;;;4.80;3.20;;;;;;;5.11;54.99;98699.66;7974415;28;20072;-65
2021/01/22 07:20:28;;;;;;;2.88;1.75;;;;;;;5.11;55.02;98698.81;7975666;28;20036;-65
2021/01/22 07:24:20;;;;;;;3.28;1.92;;;;;;;5.10;54.97;98705.81;7975437;28;20034;-65
2021/01/22 07:28:16;;;;;;;2.95;1.85;;;;;;;5.11;55.19;98722.25;7975249;28;20545;-65
2021/01/22 07:32:09;;;;;;;2.90;1.80;;;;;;;5.08;54.87;98712.91;7954182;28;20100;-65
2021/01/22 07:36:06;;;;;;;3.03;1.85;;;;;;;5.07;54.96;98726.03;7942929;28;20506;-64
2021/01/22 07:39:56;;;;;;;3.05;2.05;;;;;;;5.06;55.32;98732.22;7942731;28;20070;-64
2021/01/22 07:44:00;;;;;;;4.07;2.00;;;;;;;5.04;55.05;98736.69;7945872;28;20037;-65
2021/01/22 07:47:51;;;;;;;3.65;1.83;;;;;;;5.02;54.88;98736.78;7987151;28;20033;-65
2021/01/22 07:51:41;;;;;;;2.30;1.88;;;;;;;5.01;55.30;98742.13;8004871;28;20447;-65
2021/01/22 07:55:32;;;;;;;3.72;2.60;;;;;;;5.01;55.13;98750.78;8006406;28;20051;-65
2021/01/22 07:59:24;;;;;;;3.15;1.85;;;;;;;5.01;55.24;98752.53;8006199;28;20538;-64
2021/01/22 08:03:14;;;;;;;4.38;2.75;;;;;;;5.00;55.11;98756.91;8004972;28;20065;-64
2021/01/22 08:07:05;;;;;;;3.65;1.95;;;;;;;4.99;55.22;98773.47;8006147;28;20098;-65
2021/01/22 08:10:56;;;;;;;2.83;1.80;;;;;;;5.00;54.89;98774.31;8012471;28;20041;-65
2021/01/22 08:14:46;;;;;;;3.38;2.00;;;;;;;5.01;55.10;98779.41;8011688;28;20033;-65
2021/01/22 08:18:43;;;;;;;4.22;2.22;;;;;;;5.02;55.28;98775.03;8012075;28;20045;-66
2021/01/22 08:22:34;;;;;;;3.78;2.40;;;;;;;5.02;55.25;98786.25;8011393;28;20036;-64
2021/01/22 08:26:26;;;;;;;5.10;2.22;;;;;;;5.04;55.20;98781.75;7991228;28;20481;-65
2021/01/22 08:30:19;;;;;;;3.00;2.05;;;;;;;5.04;55.37;98781.75;7978965;28;20393;-65
2021/01/22 08:34:10;;;;;;;4.43;2.17;;;;;;;5.09;55.28;98787.44;7977718;28;20478;-64
2021/01/22 08:38:01;;;;;;;2.92;1.73;;;;;;;5.08;55.18;98787.56;7980736;28;20552;-66
2021/01/22 08:41:51;;;;;;;3.47;2.42;;;;;;;5.12;55.71;98791.59;7979337;28;20461;-65
2021/01/22 08:46:02;;;;;;;3.08;1.90;;;;;;;5.15;55.72;98801.78;7979287;28;20037;-65
2021/01/22 08:50:00;;;;;;;4.55;2.00;;;;;;;5.16;55.45;98806.88;7979863;28;20029;-65
2021/01/22 08:53:51;;;;;;;;;;;;;;;5.12;55.46;98799.38;7979405;28;20022;-65
2021/01/22 08:57:58;;;;;;;3.45;2.50;;;;;;;5.19;55.48;98808.41;7981566;28;19964;-66
2021/01/22 09:01:58;;;;;;;2.25;1.70;;;;;;;5.25;55.72;98817.53;7957474;28;20155;-67
2021/01/22 09:05:53;;;;;;;2.30;1.77;;;;;;;5.28;55.55;98805.09;7971360;28;20029;-66
2021/01/22 09:09:49;;;;;;;3.70;2.20;;;;;;;5.34;55.68;98801.22;7972024;28;20092;-64
2021/01/22 09:13:54;;;;;;;3.28;2.20;;;;;;;5.38;55.90;98805.25;7972683;28;20046;-65
2021/01/22 09:17:53;;;;;;;3.83;2.00;;;;;;;5.51;55.85;98816.38;7973618;28;20052;-65
2021/01/22 09:21:54;;;;;;;3.40;2.03;;;;;;;5.58;55.79;98822.75;7972049;28;20052;-64
2021/01/22 09:25:44;;;;;;;4.47;2.40;;;;;;;5.60;56.01;98828.69;7974027;28;21277;-65
2021/01/22 09:29:35;;;;;;;6.22;2.20;;;;;;;5.64;55.71;98843.94;7971728;28;20489;-65
2021/01/22 09:33:26;;;;;;;3.33;2.15;;;;;;;5.65;55.75;98845.59;7973294;28;20029;-66
2021/01/22 09:37:17;;;;;;;3.38;2.17;;;;;;;5.70;55.58;98853.06;7975189;28;20045;-65
2021/01/22 09:41:07;;;;;;;5.22;2.00;;;;;;;5.74;55.69;98856.25;7976352;28;20032;-66
2021/01/22 09:44:58;;;;;;;3.78;2.50;;;;;;;5.79;56.11;98875.81;7975422;28;20125;-67
2021/01/22 09:48:49;;;;;;;5.50;2.00;;;;;;;5.86;56.05;98881.34;7975271;28;20123;-65
2021/01/22 09:52:40;;;;;;;4.88;2.20;;;;;;;5.92;56.11;98886.94;7977346;28;20034;-65
2021/01/22 09:56:30;;;;;;;4.35;2.50;;;;;;;5.92;55.68;98886.09;7975284;28;20064;-67
2021/01/22 10:00:21;;;;;;;3.97;2.10;;;;;;;5.93;55.64;98887.75;7972134;28;21288;-66
2021/01/22 10:04:12;;;;;;;4.38;2.35;;;;;;;5.90;55.98;98901.00;7970948;28;20052;-66
2021/01/22 10:08:03;;;;;;;3.28;2.00;;;;;;;5.95;56.04;98910.13;7973990;28;20037;-66
2021/01/22 10:11:53;;;;;;;3.30;2.13;;;;;;;5.96;55.69;98913.56;7974149;28;20038;-66
2021/01/22 10:15:44;;;;;;;6.13;1.98;;;;;;;5.96;55.93;98914.41;7991693;28;20041;-65
2021/01/22 10:19:35;;;;;;;3.40;2.10;;;;;;;5.95;55.92;98919.72;7994252;28;20036;-66
2021/01/22 10:23:25;;;;;;;4.32;2.42;;;;;;;6.02;55.71;98913.09;7979047;28;20062;-66
2021/01/22 10:27:16;;;;;;;2.72;2.00;;;;;;;6.01;55.98;98914.06;7972730;28;20032;-63
2021/01/22 10:31:06;;;;;;;4.40;2.20;;;;;;;6.06;56.10;98920.56;7973714;28;20025;-65
2021/01/22 10:34:57;;;;;;;5.35;2.30;;;;;;;6.09;56.08;98929.94;7991882;28;20037;-62
2021/01/22 10:38:48;;;;;;;2.65;1.88;;;;;;;6.10;55.96;98924.56;7979040;28;20037;-64
2021/01/22 10:42:38;;;;;;;7.38;2.97;;;;;;;6.15;56.00;98926.00;7989649;28;20028;-65
2021/01/22 10:46:31;;;;;;;4.35;2.30;;;;;;;6.17;55.60;98930.16;7980332;28;20041;-65
2021/01/22 10:50:22;;;;;;;3.38;2.13;;;;;;;6.23;55.91;98939.25;7982491;28;20056;-66
2021/01/22 10:54:12;;;;;;;4.38;2.42;;;;;;;6.27;55.86;98943.28;7979989;28;20051;-65
2021/01/22 10:58:03;;;;;;;3.25;2.03;;;;;;;6.30;56.00;98935.25;7982073;28;20383;-63
2021/01/22 11:01:53;;;;;;;3.90;2.30;;;;;;;6.31;55.68;98935.09;7976702;28;20045;-65
2021/01/22 11:05:44;;;;;;;2.67;2.05;;;;;;;6.37;55.62;98939.84;7973650;28;20021;-66
2021/01/22 11:09:34;;;;;;;4.57;2.22;;;;;;;6.40;55.55;98939.59;7968973;28;20033;-67
2021/01/22 11:13:25;;;;;;;3.22;2.00;;;;;;;6.42;55.79;98942.94;7972755;28;20029;-66
2021/01/22 11:17:16;;;;;;;3.50;2.28;;;;;;;6.46;55.95;98944.34;7970261;28;20094;-66
2021/01/22 11:21:07;;;;;;;2.70;2.08;;;;;;;6.46;55.88;98949.56;7970231;28;20053;-63
2021/01/22 11:24:58;;;;;;;4.32;2.42;;;;;;;6.48;55.50;98958.06;7966121;28;20544;-66
2021/01/22 11:28:48;;;;;;;5.22;2.53;;;;;;;6.50;55.41;98961.41;7969627;28;20032;-63
2021/01/22 11:32:39;;;;;;;5.07;2.40;;;;;;;6.50;55.51;98971.84;7961846;28;20037;-66
2021/01/22 11:36:29;;;;;;;5.72;2.17;;;;;;;6.53;55.62;98976.81;7965677;28;20389;-66
2021/01/22 11:40:20;;;;;;;6.45;1.98;;;;;;;6.53;55.37;98978.59;7968667;28;20025;-66
2021/01/22 11:44:10;;;;;;;3.45;1.70;;;;;;;6.53;55.47;98983.78;7969233;28;20389;-65
2021/01/22 11:48:01;;;;;;;5.38;2.00;;;;;;;6.53;55.44;98984.63;7964809;28;20045;-65
2021/01/22 11:51:52;;;;;;;2.58;1.63;;;;;;;6.52;54.96;98984.75;7968640;28;20040;-67
2021/01/22 11:55:43;;;;;;;2.53;1.67;;;;;;;6.49;55.21;98980.59;7969292;28;20152;-66
2021/01/22 11:59:33;;;;;;;3.30;1.55;;;;;;;6.47;54.88;98985.09;7970622;28;20034;-66
2021/01/22 12:03:25;;;;;;;4.00;1.38;;;;;;;6.46;54.85;98990.47;7977469;28;20468;-66
2021/01/22 12:07:16;;;;;;;5.03;1.65;;;;;;;6.36;54.95;98992.94;7968652;28;20511;-64
2021/01/22 12:11:06;;;;;;;2.00;1.60;;;;;;;6.36;54.84;99003.38;7971665;28;20039;-63
2021/01/22 12:14:57;;;;;;;1.55;1.33;;;;;;;6.37;54.94;99002.44;7971999;28;20090;-64
2021/01/22 12:18:47;;;;;;;2.08;1.52;;;;;;;6.38;55.14;98998.88;7974695;28;20039;-65
2021/01/22 12:22:38;;;;;;;2.90;1.67;;;;;;;6.36;54.95;98999.94;7970838;28;20047;-64
2021/01/22 12:26:29;;;;;;;5.95;1.80;;;;;;;6.42;55.04;98999.47;7973608;28;20548;-64
2021/01/22 12:30:21;;;;;;;3.22;1.67;;;;;;;6.42;54.95;98982.03;7974137;28;20102;-65
2021/01/22 12:34:11;;;;;;;5.00;1.38;;;;;;;6.43;55.07;98983.69;7972159;28;20045;-67
2021/01/22 12:38:03;;;;;;;4.28;1.83;;;;;;;6.46;54.88;98988.69;7972954;28;20052;-66
2021/01/22 12:41:53;;;;;;;3.38;1.55;;;;;;;6.49;55.13;98985.00;7968454;28;20117;-66
2021/01/22 12:45:44;;;;;;;5.97;2.05;;;;;;;6.52;54.83;98984.75;7973599;28;20052;-62
2021/01/22 12:49:34;;;;;;;2.60;1.45;;;;;;;6.56;54.75;98979.16;7978515;28;20037;-67
2021/01/22 12:53:25;;;;;;;1.77;1.30;;;;;;;6.59;55.03;98986.75;7967404;28;20038;-65
2021/01/22 12:57:15;;;;;;;2.53;2.00;;;;;;;6.63;54.87;98994.34;7985759;28;20044;-65
2021/01/22 13:01:06;;;;;;;2.65;1.63;;;;;;;6.67;54.52;98998.38;7980346;28;20036;-65
2021/01/22 13:04:56;;;;;;;4.35;2.30;;;;;;;6.70;54.91;98995.50;7975263;28;20059;-66
2021/01/22 13:08:47;;;;;;;2.50;1.23;;;;;;;6.73;54.37;99011.78;7973788;28;20242;-66
2021/01/22 13:12:38;;;;;;;6.25;1.50;;;;;;;6.72;54.62;99004.09;7974944;28;20143;-65
2021/01/22 13:16:29;;;;;;;2.10;1.30;;;;;;;6.72;54.39;99009.31;7973479;28;20413;-64
2021/01/22 13:20:19;;;;;;;4.43;1.70;;;;;;;6.69;54.42;99018.16;7975475;28;20034;-70
2021/01/22 13:24:10;;;;;;;3.97;1.88;;;;;;;6.67;54.65;99011.41;7985279;28;20036;-65
2021/01/22 13:28:01;;;;;;;1.27;1.02;;;;;;;6.68;54.23;99023.53;7975944;28;20063;-65
2021/01/22 13:31:51;;;;;;;3.35;1.60;;;;;;;6.70;54.55;99024.22;7972542;28;20107;-66
2021/01/22 13:35:42;;;;;;;2.13;1.10;;;;;;;6.67;54.15;99014.84;7974617;28;20045;-63
2021/01/22 13:39:32;;;;;;;3.80;1.60;;;;;;;6.67;53.89;99016.63;7977581;28;20103;-66
2021/01/22 13:43:23;;;;;;;2.25;1.20;;;;;;;6.64;54.00;99029.91;7994364;28;20025;-65
2021/01/22 13:47:13;;;;;;;4.63;1.52;;;;;;;6.60;54.15;99029.31;7990886;28;20538;-66
2021/01/22 13:51:04;;;;;;;1.30;1.20;;;;;;;6.57;53.58;99034.78;7977115;28;20087;-67
2021/01/22 13:54:55;;;;;;;5.97;1.10;;;;;;;6.45;53.49;99025.31;7973673;28;20079;-67
2021/01/22 13:58:45;;;;;;;4.05;1.55;;;;;;;6.47;53.65;99042.47;7975792;28;20052;-65
2021/01/22 14:02:36;;;;;;;4.28;1.67;;;;;;;6.42;53.51;99044.66;7973261;28;20037;-66
2021/01/22 14:06:26;;;;;;;3.10;1.17;;;;;;;6.42;53.83;99054.25;7974537;28;20033;-67
2021/01/22 14:10:17;;;;;;;3.35;1.60;;;;;;;6.38;53.68;99052.81;7994293;28;20493;-69
2021/01/22 14:14:08;;;;;;;1.48;1.10;;;;;;;6.39;53.52;99063.13;7973503;28;20052;-66
2021/01/22 14:17:58;;;;;;;2.17;1.25;;;;;;;6.39;53.70;99070.09;7975652;28;20120;-64
2021/01/22 14:21:49;;;;;;;2.28;1.17;;;;;;;6.40;53.74;99074.38;7982133;28;20041;-66
2021/01/22 14:25:39;;;;;;;1.75;1.00;;;;;;;6.40;53.25;99067.41;7982371;28;20120;-65
2021/01/22 14:29:30;;;;;;;4.20;1.48;;;;;;;6.43;53.48;99071.53;7985232;28;20037;-65
2021/01/22 14:33:20;;;;;;;4.00;1.48;;;;;;;6.42;53.31;99072.50;7984630;28;20112;-65
2021/01/22 14:37:11;;;;;;;1.98;1.00;;;;;;;6.47;53.68;99084.22;7981591;28;20115;-65
2021/01/22 14:41:02;;;;;;;1.80;1.20;;;;;;;6.45;53.53;99074.88;7984698;28;20153;-63
2021/01/22 14:44:52;;;;;;;4.93;1.75;;;;;;;6.46;53.28;99077.38;7982430;28;20044;-65
2021/01/22 14:48:43;;;;;;;3.25;1.38;;;;;;;6.45;53.00;99087.91;7983446;28;20113;-62
2021/01/22 14:52:33;;;;;;;1.98;0.95;;;;;;;6.39;53.00;99077.94;7980585;28;20136;-65
2021/01/22 14:56:24;;;;;;;4.55;1.67;;;;;;;6.34;52.60;99078.31;7984160;28;20111;-65
2021/01/22 15:00:15;;;;;;;4.20;1.10;;;;;;;6.28;52.51;99078.78;7982127;28;22216;-66
2021/01/22 15:04:06;;;;;;;3.13;1.30;;;;;;;6.23;52.56;99087.88;7970785;28;20030;-66
2021/01/22 15:07:57;;;;;;;3.10;1.40;;;;;;;6.18;52.76;99077.00;7971048;28;20037;-65
2021/01/22 15:11:48;;;;;;;2.47;0.80;;;;;;;6.15;52.42;99080.66;7968075;28;20899;-63
2021/01/22 15:15:38;;;;;;;1.45;1.00;;;;;;;6.13;52.73;99081.72;7968213;28;20037;-66
2021/01/22 15:19:29;;;;;;;3.38;1.25;;;;;;;6.09;52.63;99096.75;7969764;28;20034;-65
2021/01/22 15:23:20;;;;;;;5.88;1.30;;;;;;;6.05;52.41;99096.19;7979947;28;20046;-65
2021/01/22 15:27:10;;;;;;;6.85;1.30;;;;;;;6.00;52.55;99095.69;7970009;28;20036;-63
2021/01/22 15:31:01;;;;;;;4.78;1.60;;;;;;;5.95;52.11;99089.97;7969233;28;20055;-65
2021/01/22 15:34:51;;;;;;;3.78;1.85;;;;;;;5.93;52.16;99091.03;7970836;28;20034;-65
2021/01/22 15:38:42;;;;;;;7.05;2.00;;;;;;;5.88;52.50;99091.38;7972483;28;20035;-66
2021/01/22 15:42:32;;;;;;;5.07;1.45;;;;;;;5.82;52.20;99093.59;7971035;28;20031;-65
2021/01/22 15:46:23;;;;;;;2.97;1.23;;;;;;;5.78;52.29;99103.44;7986561;28;20114;-65
2021/01/22 15:50:13;;;;;;;3.00;1.42;;;;;;;5.73;52.30;99096.88;7973348;28;20028;-65
2021/01/22 15:54:04;;;;;;;2.67;1.60;;;;;;;5.67;52.33;99092.97;7983894;28;20456;-66
2021/01/22 15:57:55;;;;;;;4.13;1.42;;;;;;;5.59;52.24;99093.53;7973655;28;20042;-66
2021/01/22 16:01:45;;;;;;;6.57;2.47;;;;;;;5.51;51.99;99100.25;7970160;28;20034;-64
2021/01/22 16:05:38;;;;;;;4.97;3.05;;;;;;;5.44;52.29;99099.84;7972572;28;20576;-65
2021/01/22 16:09:28;;;;;;;7.65;3.15;;;;;;;5.37;52.28;99109.06;7974617;28;20076;-62
2021/01/22 16:13:19;;;;;;;5.30;2.50;;;;;;;5.30;52.07;99101.81;7991882;28;20037;-66
2021/01/22 16:17:10;;;;;;;4.97;2.28;;;;;;;5.19;51.78;99103.41;7972715;28;20037;-65
2021/01/22 16:21:00;;;;;;;5.80;2.22;;;;;;;5.14;51.99;99104.66;7971391;28;20033;-63
2021/01/22 16:24:51;;;;;;;4.00;2.47;;;;;;;5.04;51.98;99103.63;7966275;28;20106;-64
2021/01/22 16:28:41;;;;;;;6.57;2.40;;;;;;;4.99;51.99;99113.53;7968447;28;20263;-63
2021/01/22 16:32:32;;;;;;;3.67;2.60;;;;;;;4.90;51.97;99117.59;7977290;28;20044;-65
2021/01/22 16:36:23;;;;;;;4.57;2.90;;;;;;;4.79;52.13;99116.69;7979255;28;20038;-65
2021/01/22 16:40:14;;;;;;;4.20;2.20;;;;;;;4.75;51.89;99118.69;7979265;28;20032;-66
2021/01/22 16:44:05;;;;;;;8.27;2.70;;;;;;;4.68;52.17;99120.91;7976158;28;20429;-67
2021/01/22 16:47:56;;;;;;;4.45;2.40;;;;;;;4.60;51.84;99127.56;7973628;28;20092;-67
2021/01/22 16:51:47;;;;;;;4.82;2.17;;;;;;;4.53;52.05;99129.72;7995570;28;20048;-65
2021/01/22 16:55:37;;;;;;;5.20;2.05;;;;;;;4.44;52.12;99126.94;7982975;28;20040;-65
2021/01/22 16:59:28;;;;;;;4.00;1.88;;;;;;;4.39;51.95;99135.06;7973469;28;20039;-67
2021/01/22 17:03:19;;;;;;;4.53;2.10;;;;;;;4.33;52.16;99145.84;7968820;28;20041;-64
2021/01/22 17:07:09;;;;;;;2.63;2.20;;;;;;;4.28;52.05;99147.94;7989007;28;20041;-67
2021/01/22 17:11:00;;;;;;;4.32;2.33;;;;;;;4.23;51.98;99144.84;7972930;28;20025;-63
2021/01/22 17:14:50;;;;;;;4.03;2.17;;;;;;;4.16;51.99;99157.38;7973245;28;20025;-67
2021/01/22 17:18:41;;;;;;;4.45;2.05;;;;;;;4.09;51.84;99148.34;7975635;28;20577;-67
2021/01/22 17:22:31;;;;;;;6.45;2.00;;;;;;;4.06;52.10;99158.13;7974587;28;20052;-68
2021/01/22 17:26:22;;;;;;;3.63;1.98;;;;;;;3.99;52.06;99157.66;7991555;28;20052;-67
2021/01/22 17:30:13;;;;;;;5.53;2.25;;;;;;;3.94;52.13;99159.75;7970015;28;20160;-70
2021/01/22 17:34:04;;;;;;;3.30;1.90;;;;;;;3.90;52.10;99157.47;7972494;28;20037;-71
2021/01/22 17:37:54;;;;;;;4.35;2.50;;;;;;;3.85;52.01;99165.56;7971722;28;20037;-70
2021/01/22 17:41:45;;;;;;;3.38;2.15;;;;;;;3.78;52.36;99161.66;7972828;28;20082;-71
2021/01/22 17:45:36;;;;;;;10.52;3.65;;;;;;;3.73;51.93;99174.97;7974689;28;20040;-66
2021/01/22 17:49:26;;;;;;;10.73;2.67;;;;;;;3.71;51.97;99179.41;7974656;28;20041;-69
2021/01/22 17:53:17;;;;;;;4.97;2.60;;;;;;;3.65;52.29;99172.03;7974118;28;20039;-67
2021/01/22 17:57:07;;;;;;;7.60;3.00;;;;;;;3.59;52.17;99169.81;7976708;28;20102;-69
2021/01/22 18:00:58;;;;;;;5.57;2.22;;;;;;;3.58;52.23;99178.53;7969651;28;20037;-70
2021/01/22 18:04:49;;;;;;;3.92;2.65;;;;;;;3.52;51.95;99189.31;7971006;28;20520;-71
2021/01/22 18:08:40;;;;;;;4.88;2.78;;;;;;;3.47;52.07;99193.97;7975329;28;20033;-67
2021/01/22 18:12:31;;;;;;;4.55;2.47;;;;;;;3.45;51.97;99192.41;7979149;28;20116;-69
2021/01/22 18:16:23;;;;;;;7.78;2.80;;;;;;;3.39;52.14;99192.78;7990482;28;20047;-70
2021/01/22 18:20:14;;;;;;;13.40;4.18;;;;;;;3.37;52.21;99202.41;7978930;28;20552;-70
2021/01/22 18:24:06;;;;;;;9.75;2.58;;;;;;;3.31;52.38;99209.69;7975787;28;20025;-70